Road Forks, New Mexico
Current Conditions -  °F | °C
As of 7:55 PM on Friday 21 Nov 2014 (Local Time) from KLSB Reporting Station
Scattered Clouds Scattered Clouds  
Wind Chill: 44°   Ceiling: Unl
Heat Index: 46°   Visibility: 10mi
Dew Point: 27°   Wind: 5mph
Humidity: 46%   Direction: 220°SW
Pressure: 29.98"   Gusts: NA
Location:  32.3095°N, 108.813°W
Report Text: KLSB 220255Z AUTO 22004KT 10SM SCT120 08/M03 A2998 RMK AO2
Loading
Personal Weather Stations






























Interactive Weather Map New forecast layout! Learn more

10-Day Weather Forecast

Advertisements
Track Severe Weather on mobile